Time;durP1;ratioP1;P1;durP2;ratioP2;P2;SDS_P1;SDS_P2;PMS_P1;PMS_P2;Temp;Humidity;BMP_temperature;BMP_pressure;BME280_temperature;BME280_humidity;BME280_pressure;Samples;Min_cycle;Max_cycle;Signal;HPM_P1;HPM_P2
2022/07/17 00:00:35;;;;;;;0.73;0.65;;;15.20;98.50;;;;;;4444965;32;20062;-63
2022/07/17 00:03:01;;;;;;;0.45;0.30;;;15.10;98.40;;;;;;4445459;32;20078;-63
2022/07/17 00:05:26;;;;;;;0.32;0.32;;;15.10;98.60;;;;;;4440869;32;20524;-63
2022/07/17 00:07:52;;;;;;;0.20;0.20;;;15.10;98.60;;;;;;4428462;32;20432;-63
2022/07/17 00:10:17;;;;;;;0.20;0.20;;;15.10;98.70;;;;;;4429996;32;20065;-63
2022/07/17 00:12:43;;;;;;;0.22;0.22;;;15.00;98.80;;;;;;4416323;32;20070;-63
2022/07/17 00:15:09;;;;;;;0.30;0.30;;;15.00;98.90;;;;;;4429962;32;20069;-63
2022/07/17 00:17:34;;;;;;;0.75;0.52;;;14.90;99.00;;;;;;4430471;32;20077;-63
2022/07/17 00:20:00;;;;;;;0.20;0.20;;;14.90;99.40;;;;;;4415140;32;20540;-63
2022/07/17 00:22:27;;;;;;;0.20;0.20;;;14.90;99.40;;;;;;4412191;32;20089;-63
2022/07/17 00:24:53;;;;;;;19.08;0.40;;;15.00;99.30;;;;;;4414367;32;20437;-63
2022/07/17 00:27:18;;;;;;;0.20;0.20;;;14.90;99.70;;;;;;4429993;32;20073;-63
2022/07/17 00:29:44;;;;;;;0.20;0.20;;;14.80;99.90;;;;;;4430475;32;20061;-63
2022/07/17 00:32:09;;;;;;;0.20;0.20;;;14.80;99.90;;;;;;4429889;32;20447;-63
2022/07/17 00:34:34;;;;;;;0.25;0.25;;;14.80;99.90;;;;;;4429630;32;20120;-63
2022/07/17 00:37:00;;;;;;;0.40;0.40;;;14.80;99.90;;;;;;4445085;32;20068;-64
2022/07/17 00:39:25;;;;;;;0.95;0.62;;;14.80;99.90;;;;;;4445272;32;20065;-63
2022/07/17 00:41:51;;;;;;;1.23;0.93;;;14.70;99.90;;;;;;4444968;32;20452;-63
2022/07/17 00:44:16;;;;;;;0.37;0.37;;;14.60;99.90;;;;;;4444804;32;20060;-63
2022/07/17 00:46:43;;;;;;;0.32;0.32;;;14.70;99.90;;;;;;4435375;32;20427;-63
2022/07/17 00:49:09;;;;;;;0.30;0.30;;;14.60;99.90;;;;;;4428628;32;20049;-64
2022/07/17 00:51:35;;;;;;;0.22;0.22;;;14.60;99.90;;;;;;4405196;32;20090;-63
2022/07/17 00:54:02;;;;;;;0.30;0.30;;;14.70;99.90;;;;;;4395993;32;20053;-62
2022/07/17 00:56:28;;;;;;;19.10;0.65;;;14.60;99.90;;;;;;4412537;32;20406;-63
2022/07/17 00:58:54;;;;;;;0.20;0.20;;;14.70;99.90;;;;;;4414497;32;20065;-63
2022/07/17 01:01:20;;;;;;;0.20;0.20;;;14.60;99.90;;;;;;4402520;32;20100;-63
2022/07/17 01:03:46;;;;;;;0.20;0.20;;;14.50;99.90;;;;;;4415509;32;20505;-63
2022/07/17 01:06:11;;;;;;;0.30;0.30;;;14.50;99.90;;;;;;4439971;32;20065;-63
2022/07/17 01:08:37;;;;;;;0.28;0.28;;;14.50;99.90;;;;;;4444964;32;20065;-62
2022/07/17 01:11:03;;;;;;;0.20;0.20;;;14.50;99.90;;;;;;4443552;32;20078;-63
2022/07/17 01:13:31;;;;;;;0.28;0.28;;;14.40;99.90;;;;;;4444026;32;20077;-64
2022/07/17 01:15:57;;;;;;;0.20;0.20;;;14.40;99.90;;;;;;4418678;32;20073;-64
2022/07/17 01:18:23;;;;;;;0.57;0.57;;;14.50;99.90;;;;;;4429927;32;20069;-63
2022/07/17 01:20:49;;;;;;;0.52;0.30;;;14.40;99.90;;;;;;4414591;32;20555;-63
2022/07/17 01:23:16;;;;;;;1.75;0.80;;;14.30;99.90;;;;;;4407994;32;20060;-62
2022/07/17 01:25:43;;;;;;;0.20;0.20;;;14.30;99.90;;;;;;4437208;32;20116;-63
2022/07/17 01:28:08;;;;;;;0.20;0.20;;;14.20;99.90;;;;;;4443812;32;20085;-63
2022/07/17 01:30:35;;;;;;;0.30;0.30;;;14.20;99.90;;;;;;4430984;32;20062;-63
2022/07/17 01:33:00;;;;;;;9.23;0.40;;;14.10;99.90;;;;;;4441086;32;110059;-63
2022/07/17 01:35:26;;;;;;;0.20;0.20;;;14.00;99.90;;;;;;4445179;32;20057;-63
2022/07/17 01:37:52;;;;;;;0.20;0.20;;;14.00;99.90;;;;;;4430254;32;20127;-63
2022/07/17 01:40:18;;;;;;;0.37;0.22;;;14.10;99.90;;;;;;4444842;32;20631;-63
2022/07/17 01:42:46;;;;;;;0.62;0.62;;;14.00;99.90;;;;;;4429554;32;20053;-63
2022/07/17 01:45:12;;;;;;;0.40;0.40;;;14.00;99.90;;;;;;4444437;32;20461;-63
2022/07/17 01:47:38;;;;;;;0.22;0.22;;;13.80;99.90;;;;;;4430377;32;20097;-63
2022/07/17 01:50:04;;;;;;;0.30;0.30;;;13.90;99.90;;;;;;4443660;32;20120;-62
2022/07/17 01:52:30;;;;;;;0.20;0.20;;;13.80;99.90;;;;;;4425387;32;20511;-63
2022/07/17 01:54:55;;;;;;;0.20;0.20;;;13.70;99.90;;;;;;4430042;32;20123;-62
2022/07/17 01:57:21;;;;;;;0.20;0.20;;;13.60;99.90;;;;;;4430528;32;20069;-62
2022/07/17 01:59:48;;;;;;;0.20;0.20;;;13.70;99.90;;;;;;4443505;32;20073;-62
2022/07/17 02:02:15;;;;;;;1.98;0.52;;;13.70;99.90;;;;;;4429549;32;20119;-63
2022/07/17 02:04:41;;;;;;;0.20;0.20;;;13.70;99.90;;;;;;4430822;32;20540;-62
2022/07/17 02:07:08;;;;;;;2.53;0.68;;;13.70;99.90;;;;;;4429851;32;20057;-62
2022/07/17 02:09:33;;;;;;;0.28;0.28;;;13.70;99.90;;;;;;4430810;32;20068;-62
2022/07/17 02:11:59;;;;;;;0.60;0.40;;;13.60;99.90;;;;;;4445548;32;20526;-62
2022/07/17 02:14:24;;;;;;;0.20;0.20;;;13.60;99.90;;;;;;4445820;32;20061;-62
2022/07/17 02:16:50;;;;;;;0.40;0.40;;;13.70;99.90;;;;;;4446677;32;20081;-62
2022/07/17 02:19:16;;;;;;;0.30;0.30;;;13.50;99.90;;;;;;4446374;32;20065;-62
2022/07/17 02:21:41;;;;;;;2.08;0.40;;;13.40;99.90;;;;;;4435347;32;20066;-62
2022/07/17 02:24:07;;;;;;;1.95;0.77;;;13.40;99.90;;;;;;4427242;32;20080;-63
2022/07/17 02:26:32;;;;;;;0.90;0.73;;;13.30;99.90;;;;;;4444643;32;20077;-63
2022/07/17 02:28:58;;;;;;;0.50;0.50;;;13.30;99.90;;;;;;4434751;32;20082;-62
2022/07/17 02:31:23;;;;;;;0.50;0.50;;;13.30;99.90;;;;;;4430822;32;20078;-62
2022/07/17 02:33:49;;;;;;;0.20;0.20;;;13.10;99.90;;;;;;4431159;32;20512;-63
2022/07/17 02:36:14;;;;;;;2.72;0.55;;;13.20;99.90;;;;;;4416374;32;20062;-62
2022/07/17 02:38:40;;;;;;;0.28;0.28;;;13.20;99.90;;;;;;4429672;32;20069;-62
2022/07/17 02:41:06;;;;;;;0.40;0.40;;;13.20;99.90;;;;;;4431224;32;20086;-63
2022/07/17 02:43:31;;;;;;;0.20;0.20;;;13.20;99.90;;;;;;4431409;32;20125;-62
2022/07/17 02:45:57;;;;;;;0.25;0.25;;;13.10;99.90;;;;;;4410648;32;20405;-63
2022/07/17 02:48:23;;;;;;;0.30;0.30;;;13.20;99.90;;;;;;4445989;32;20085;-62
2022/07/17 02:50:48;;;;;;;0.20;0.20;;;13.20;99.90;;;;;;4427099;32;20090;-62
2022/07/17 02:53:13;;;;;;;0.25;0.25;;;13.10;99.90;;;;;;4408996;32;20073;-62
2022/07/17 02:55:39;;;;;;;0.30;0.30;;;13.10;99.90;;;;;;4423235;32;20069;-62
2022/07/17 02:58:04;;;;;;;0.20;0.20;;;13.10;99.90;;;;;;4417068;32;20899;-62
2022/07/17 03:00:30;;;;;;;1.27;0.30;;;13.00;99.90;;;;;;4431451;32;20061;-63
2022/07/17 03:02:56;;;;;;;0.52;0.47;;;13.00;99.90;;;;;;4431440;32;20069;-63
2022/07/17 03:05:21;;;;;;;21.40;0.50;;;13.10;99.90;;;;;;4417148;32;20112;-63
2022/07/17 03:07:47;;;;;;;0.30;0.30;;;13.10;99.90;;;;;;4416220;32;20077;-62
2022/07/17 03:10:13;;;;;;;3.62;1.02;;;13.00;99.90;;;;;;4430549;32;20066;-63
2022/07/17 03:12:39;;;;;;;9.65;2.60;;;13.00;99.90;;;;;;4429642;32;20065;-64
2022/07/17 03:15:05;;;;;;;0.35;0.35;;;13.00;99.90;;;;;;4430624;32;20130;-63
2022/07/17 03:17:31;;;;;;;0.30;0.30;;;13.00;99.90;;;;;;4430476;32;20430;-63
2022/07/17 03:19:57;;;;;;;0.40;0.40;;;13.10;99.90;;;;;;4431087;32;20529;-62
2022/07/17 03:22:22;;;;;;;0.20;0.20;;;13.00;99.90;;;;;;4411056;32;20069;-63
2022/07/17 03:24:47;;;;;;;0.20;0.20;;;12.90;99.90;;;;;;4399803;32;20119;-63
2022/07/17 03:27:13;;;;;;;0.40;0.40;;;12.80;99.90;;;;;;4431203;32;20068;-63
2022/07/17 03:29:39;;;;;;;0.30;0.30;;;12.90;99.90;;;;;;4445107;32;20069;-63
2022/07/17 03:32:05;;;;;;;0.25;0.25;;;12.80;99.90;;;;;;4446320;32;20093;-62
2022/07/17 03:34:31;;;;;;;0.40;0.40;;;12.70;99.90;;;;;;4445471;32;20057;-62
2022/07/17 03:36:56;;;;;;;22.60;1.05;;;12.70;99.90;;;;;;4444987;32;20555;-63
2022/07/17 03:39:22;;;;;;;0.75;0.50;;;12.70;99.90;;;;;;4431439;32;20069;-63
2022/07/17 03:41:47;;;;;;;0.40;0.40;;;12.80;99.90;;;;;;4446079;32;20100;-62
2022/07/17 03:44:13;;;;;;;0.40;0.40;;;12.90;99.90;;;;;;4445907;32;20064;-62
2022/07/17 03:46:38;;;;;;;0.57;0.45;;;12.90;99.90;;;;;;4445250;32;20070;-62
2022/07/17 03:49:04;;;;;;;0.30;0.30;;;12.90;99.90;;;;;;4444910;32;20061;-63
2022/07/17 03:51:29;;;;;;;0.40;0.40;;;12.90;99.90;;;;;;4435024;32;20089;-63
2022/07/17 03:53:55;;;;;;;0.40;0.40;;;12.90;99.90;;;;;;4423655;32;20057;-62
2022/07/17 03:56:20;;;;;;;9.05;0.65;;;13.00;99.90;;;;;;4442457;32;20065;-63
2022/07/17 03:58:46;;;;;;;0.25;0.25;;;12.90;99.90;;;;;;4444780;32;20423;-63
2022/07/17 04:01:11;;;;;;;0.60;0.60;;;12.90;99.90;;;;;;4445481;32;20120;-63
2022/07/17 04:03:37;;;;;;;0.50;0.50;;;13.00;99.90;;;;;;4445846;32;20089;-63
2022/07/17 04:06:02;;;;;;;0.52;0.35;;;13.00;99.90;;;;;;4444524;32;20123;-63
2022/07/17 04:08:29;;;;;;;0.20;0.20;;;13.00;99.90;;;;;;4444338;32;20065;-63
2022/07/17 04:10:55;;;;;;;0.40;0.30;;;13.00;99.90;;;;;;4445529;32;20077;-63
2022/07/17 04:13:20;;;;;;;0.30;0.30;;;13.10;99.90;;;;;;4444659;32;20517;-63
2022/07/17 04:15:49;;;;;;;0.30;0.30;;;13.10;99.90;;;;;;4445644;32;20070;-63
2022/07/17 04:18:15;;;;;;;0.40;0.40;;;13.10;99.90;;;;;;4445302;32;20194;-63
2022/07/17 04:20:41;;;;;;;19.77;0.50;;;13.00;99.90;;;;;;4427384;32;20514;-62
2022/07/17 04:23:07;;;;;;;0.20;0.20;;;13.20;99.90;;;;;;4424451;32;20069;-62
2022/07/17 04:25:32;;;;;;;0.22;0.22;;;13.20;99.90;;;;;;4422943;32;20073;-62
2022/07/17 04:27:57;;;;;;;0.20;0.20;;;13.20;99.90;;;;;;4438940;32;20116;-63
2022/07/17 04:30:23;;;;;;;0.40;0.40;;;13.30;99.90;;;;;;4430498;32;20068;-64
2022/07/17 04:32:48;;;;;;;0.32;0.32;;;13.30;99.90;;;;;;4429732;32;20065;-63
2022/07/17 04:35:14;;;;;;;4.95;0.73;;;13.40;99.90;;;;;;4429794;32;20089;-63
2022/07/17 04:37:40;;;;;;;0.30;0.30;;;13.40;99.90;;;;;;4428576;32;20078;-63
2022/07/17 04:40:06;;;;;;;0.30;0.30;;;13.50;99.90;;;;;;4429657;32;20068;-63
2022/07/17 04:42:31;;;;;;;0.20;0.20;;;13.40;99.90;;;;;;4429408;32;20509;-63
2022/07/17 04:44:57;;;;;;;0.20;0.20;;;13.50;99.90;;;;;;4434197;32;20082;-63
2022/07/17 04:47:22;;;;;;;1.17;0.55;;;13.50;99.90;;;;;;4430358;32;20065;-63
2022/07/17 04:49:48;;;;;;;1.75;0.98;;;13.60;99.90;;;;;;4429685;32;20541;-63
2022/07/17 04:52:13;;;;;;;0.20;0.20;;;13.60;99.90;;;;;;4414899;32;20587;-62
2022/07/17 04:54:39;;;;;;;1.40;0.98;;;13.60;99.90;;;;;;4413519;32;20084;-63
2022/07/17 04:57:04;;;;;;;0.20;0.20;;;13.70;99.90;;;;;;4438997;32;20521;-63
2022/07/17 04:59:30;;;;;;;8.90;0.37;;;13.80;99.90;;;;;;4443966;32;20065;-63
2022/07/17 05:01:55;;;;;;;0.20;0.20;;;13.80;99.90;;;;;;4444787;32;20090;-62
2022/07/17 05:04:21;;;;;;;0.20;0.20;;;13.90;99.90;;;;;;4443698;32;20077;-63
2022/07/17 05:06:46;;;;;;;0.40;0.40;;;13.90;99.90;;;;;;4445118;32;20061;-63
2022/07/17 05:09:12;;;;;;;0.30;0.30;;;13.90;99.90;;;;;;4443405;32;20536;-63
2022/07/17 05:11:37;;;;;;;0.20;0.20;;;14.00;99.90;;;;;;4445440;32;20061;-62
2022/07/17 05:14:03;;;;;;;0.73;0.68;;;13.90;99.90;;;;;;4431414;32;20064;-63
2022/07/17 05:16:28;;;;;;;0.30;0.30;;;13.90;99.90;;;;;;4444777;32;20457;-63
2022/07/17 05:18:54;;;;;;;0.40;0.40;;;13.90;99.90;;;;;;4430099;32;20061;-63
2022/07/17 05:21:19;;;;;;;0.20;0.20;;;13.90;99.90;;;;;;4436757;32;20449;-63
2022/07/17 05:23:45;;;;;;;0.40;0.40;;;14.00;99.90;;;;;;4424826;32;20593;-62
2022/07/17 05:26:11;;;;;;;0.30;0.30;;;14.00;99.90;;;;;;4440309;32;20073;-63
2022/07/17 05:28:36;;;;;;;7.47;1.05;;;14.10;99.90;;;;;;4432100;32;20554;-63
2022/07/17 05:31:02;;;;;;;0.20;0.20;;;14.10;99.90;;;;;;4428842;32;20077;-63
2022/07/17 05:33:27;;;;;;;0.32;0.32;;;14.20;99.90;;;;;;4428584;32;20145;-62
2022/07/17 05:35:53;;;;;;;1.75;1.40;;;14.30;99.90;;;;;;4428532;32;20077;-62
2022/07/17 05:38:18;;;;;;;0.10;0.10;;;14.40;99.90;;;;;;4428750;32;20140;-63
2022/07/17 05:40:44;;;;;;;1.05;0.98;;;14.50;99.90;;;;;;4429070;32;20054;-62
2022/07/17 05:43:09;;;;;;;0.20;0.20;;;14.60;99.90;;;;;;4429188;32;20518;-62
2022/07/17 05:45:35;;;;;;;13.52;0.55;;;14.70;99.90;;;;;;4439895;32;20074;-62
2022/07/17 05:48:00;;;;;;;0.25;0.25;;;14.70;99.90;;;;;;4417615;32;20072;-62
2022/07/17 05:50:26;;;;;;;0.20;0.20;;;14.90;99.90;;;;;;4430177;32;20080;-62
2022/07/17 05:52:51;;;;;;;0.30;0.30;;;14.90;99.90;;;;;;4409916;32;20090;-62
2022/07/17 05:55:17;;;;;;;0.30;0.30;;;15.00;99.90;;;;;;4421627;32;20123;-63
2022/07/17 05:57:42;;;;;;;1.37;0.80;;;15.20;99.90;;;;;;4436610;32;20464;-63
2022/07/17 06:00:09;;;;;;;7.37;1.52;;;15.30;99.90;;;;;;4446656;32;20120;-63
2022/07/17 06:02:35;;;;;;;0.60;0.60;;;15.30;99.90;;;;;;4446736;32;20074;-63
2022/07/17 06:05:01;;;;;;;0.20;0.20;;;15.30;99.90;;;;;;4446885;32;20074;-63
2022/07/17 06:07:26;;;;;;;0.45;0.45;;;15.30;99.90;;;;;;4446918;32;20065;-63
2022/07/17 06:09:51;;;;;;;1.10;0.50;;;15.30;99.90;;;;;;4445759;32;20073;-63
2022/07/17 06:12:17;;;;;;;0.40;0.40;;;15.30;99.90;;;;;;4447056;32;20056;-63
2022/07/17 06:14:42;;;;;;;0.20;0.20;;;15.50;99.90;;;;;;4446548;32;20069;-63
2022/07/17 06:17:08;;;;;;;0.30;0.30;;;15.60;99.90;;;;;;4446920;32;20476;-63
2022/07/17 06:19:33;;;;;;;0.20;0.20;;;15.60;99.90;;;;;;4447264;32;20077;-62
2022/07/17 06:21:59;;;;;;;0.40;0.40;;;15.70;99.90;;;;;;4432238;32;20136;-62
2022/07/17 06:24:24;;;;;;;0.37;0.37;;;15.70;99.90;;;;;;4427209;32;20175;-63
2022/07/17 06:26:50;;;;;;;0.30;0.30;;;15.70;99.90;;;;;;4444384;32;20575;-62
2022/07/17 06:29:16;;;;;;;0.25;0.25;;;15.70;99.90;;;;;;4430413;32;20423;-63
2022/07/17 06:31:41;;;;;;;0.98;0.35;;;15.70;99.90;;;;;;4430781;32;20174;-63
2022/07/17 06:34:07;;;;;;;0.60;0.60;;;15.80;99.90;;;;;;4431552;32;20069;-63
2022/07/17 06:36:32;;;;;;;0.10;0.10;;;15.80;99.90;;;;;;4430196;32;20076;-63
2022/07/17 06:38:58;;;;;;;2.58;0.98;;;15.80;99.90;;;;;;4430997;32;20232;-62
2022/07/17 06:41:23;;;;;;;0.30;0.30;;;15.90;99.90;;;;;;4430599;32;20461;-63
2022/07/17 06:43:49;;;;;;;0.98;0.90;;;15.90;99.90;;;;;;4430382;32;20061;-63
2022/07/17 06:46:15;;;;;;;0.20;0.20;;;15.90;99.90;;;;;;4436143;32;20121;-63
2022/07/17 06:48:41;;;;;;;0.20;0.20;;;16.00;99.90;;;;;;4430996;32;20177;-63
2022/07/17 06:51:06;;;;;;;0.20;0.20;;;16.00;99.90;;;;;;4409656;32;20078;-63
2022/07/17 06:53:32;;;;;;;0.55;0.52;;;16.00;99.90;;;;;;4408020;32;20159;-62
2022/07/17 06:55:57;;;;;;;0.30;0.30;;;16.10;99.90;;;;;;4425948;32;20061;-63
2022/07/17 06:58:23;;;;;;;0.20;0.20;;;16.10;99.90;;;;;;4416755;32;20068;-64
2022/07/17 07:00:48;;;;;;;10.05;1.15;;;16.00;99.90;;;;;;4431181;32;20057;-62
2022/07/17 07:03:14;;;;;;;0.30;0.30;;;15.90;99.90;;;;;;4430974;32;20472;-63
2022/07/17 07:05:39;;;;;;;0.40;0.40;;;16.00;99.90;;;;;;4430828;32;20068;-63
2022/07/17 07:08:05;;;;;;;0.50;0.50;;;16.00;99.90;;;;;;4429915;32;20066;-66
2022/07/17 07:10:30;;;;;;;2.58;0.85;;;16.10;99.90;;;;;;4430475;32;20082;-62
2022/07/17 07:12:56;;;;;;;0.40;0.40;;;16.10;99.90;;;;;;4431046;32;20513;-63
2022/07/17 07:15:23;;;;;;;0.15;0.15;;;16.10;99.90;;;;;;4430481;32;20113;-63
2022/07/17 07:17:48;;;;;;;0.20;0.20;;;16.10;99.90;;;;;;4416853;32;20231;-63
2022/07/17 07:20:14;;;;;;;0.40;0.40;;;16.00;99.90;;;;;;4430445;32;20065;-63
2022/07/17 07:22:39;;;;;;;2.05;0.50;;;16.00;99.90;;;;;;4395977;32;20090;-62
2022/07/17 07:25:05;;;;;;;0.75;0.68;;;16.10;99.90;;;;;;4416284;32;20119;-63
2022/07/17 07:27:31;;;;;;;3.15;0.73;;;16.20;99.90;;;;;;4438219;32;20077;-63
2022/07/17 07:29:57;;;;;;;2.72;0.95;;;16.20;99.90;;;;;;4445439;32;20065;-63
2022/07/17 07:32:22;;;;;;;0.20;0.20;;;16.20;99.90;;;;;;4445377;32;20085;-63
2022/07/17 07:34:48;;;;;;;0.20;0.20;;;16.20;99.90;;;;;;4446254;32;20061;-63
2022/07/17 07:37:13;;;;;;;0.30;0.30;;;16.20;99.90;;;;;;4445780;32;20493;-62
2022/07/17 07:39:39;;;;;;;0.20;0.20;;;16.10;99.90;;;;;;4431042;32;20073;-63
2022/07/17 07:42:05;;;;;;;1.65;1.55;;;16.20;99.90;;;;;;4445945;32;20111;-63
2022/07/17 07:44:30;;;;;;;1.77;1.05;;;16.20;99.90;;;;;;4445608;32;20076;-63
2022/07/17 07:46:56;;;;;;;0.80;0.80;;;16.20;99.90;;;;;;4430947;32;21007;-63
2022/07/17 07:49:21;;;;;;;0.40;0.40;;;16.20;99.90;;;;;;4445754;32;20068;-63
2022/07/17 07:51:47;;;;;;;0.40;0.40;;;16.30;99.90;;;;;;4433631;32;20064;-62
2022/07/17 07:54:12;;;;;;;0.25;0.25;;;16.30;99.90;;;;;;4425688;32;20069;-63
2022/07/17 07:56:38;;;;;;;0.30;0.30;;;16.10;99.90;;;;;;4427936;32;20554;-62
2022/07/17 07:59:03;;;;;;;0.50;0.50;;;16.00;99.90;;;;;;4430649;32;20065;-63
2022/07/17 08:01:29;;;;;;;0.40;0.40;;;16.30;99.90;;;;;;4430261;32;20478;-63
2022/07/17 08:03:55;;;;;;;1.02;0.77;;;16.40;99.90;;;;;;4429522;32;20077;-63
2022/07/17 08:06:21;;;;;;;0.20;0.20;;;16.50;99.90;;;;;;4430060;32;20068;-64
2022/07/17 08:08:46;;;;;;;0.50;0.50;;;16.60;99.90;;;;;;4429643;32;20061;-63
2022/07/17 08:11:12;;;;;;;0.35;0.35;;;16.60;99.90;;;;;;4429337;32;20081;-63
2022/07/17 08:13:38;;;;;;;2.72;0.45;;;16.50;99.90;;;;;;4430274;32;20068;-62
2022/07/17 08:16:04;;;;;;;0.60;0.60;;;16.60;99.90;;;;;;4429812;32;20517;-63
2022/07/17 08:18:29;;;;;;;0.20;0.20;;;16.60;99.90;;;;;;4428598;32;20085;-63
2022/07/17 08:20:54;;;;;;;0.28;0.28;;;16.80;99.90;;;;;;4424542;32;20131;-62
2022/07/17 08:23:20;;;;;;;0.40;0.40;;;16.90;99.90;;;;;;4407461;32;20073;-63
2022/07/17 08:25:47;;;;;;;0.30;0.30;;;17.00;99.90;;;;;;4422979;32;20065;-62
2022/07/17 08:28:14;;;;;;;0.60;0.37;;;17.10;99.90;;;;;;4443781;32;20065;-63
2022/07/17 08:30:39;;;;;;;0.32;0.32;;;17.00;99.90;;;;;;4417945;32;20128;-63
2022/07/17 08:33:06;;;;;;;0.57;0.50;;;17.10;99.90;;;;;;4444157;32;20069;-63
2022/07/17 08:35:32;;;;;;;0.65;0.65;;;17.30;99.90;;;;;;4430992;32;20410;-63
2022/07/17 08:38:00;;;;;;;0.57;0.57;;;17.60;99.90;;;;;;4445478;32;20065;-63
2022/07/17 08:40:29;;;;;;;0.30;0.30;;;17.70;99.90;;;;;;4444002;32;20081;-63
2022/07/17 08:42:56;;;;;;;0.22;0.22;;;17.60;99.90;;;;;;4443756;32;20126;-63
2022/07/17 08:45:22;;;;;;;0.47;0.47;;;17.60;99.90;;;;;;4444110;32;20065;-63
2022/07/17 08:47:50;;;;;;;0.22;0.22;;;17.40;99.90;;;;;;4429647;32;20072;-63
2022/07/17 08:50:19;;;;;;;0.57;0.30;;;17.20;99.90;;;;;;4437433;32;20120;-63
2022/07/17 08:52:45;;;;;;;0.30;0.30;;;17.30;99.90;;;;;;4423178;32;20069;-62
2022/07/17 08:55:13;;;;;;;0.30;0.30;;;17.30;99.90;;;;;;4418046;32;20073;-62
2022/07/17 08:57:40;;;;;;;1.52;0.32;;;17.40;99.90;;;;;;4444900;32;20077;-63
2022/07/17 09:00:07;;;;;;;4.00;1.45;;;17.40;99.90;;;;;;4443880;32;20386;-63
2022/07/17 09:02:33;;;;;;;0.55;0.55;;;17.40;99.90;;;;;;4444649;32;20061;-63
2022/07/17 09:04:58;;;;;;;0.30;0.30;;;17.50;99.90;;;;;;4445048;32;20520;-63
2022/07/17 09:07:24;;;;;;;0.60;0.60;;;17.80;99.90;;;;;;4430862;32;20057;-63
2022/07/17 09:09:51;;;;;;;0.30;0.30;;;17.90;99.90;;;;;;4444025;32;20566;-63
2022/07/17 09:12:17;;;;;;;2.30;0.30;;;18.00;99.90;;;;;;4430043;32;20093;-64
2022/07/17 09:14:42;;;;;;;0.20;0.20;;;18.00;99.90;;;;;;4444380;32;20513;-63
2022/07/17 09:17:10;;;;;;;0.20;0.20;;;17.90;99.90;;;;;;4444945;32;20104;-63
2022/07/17 09:19:40;;;;;;;1.00;0.77;;;17.90;99.90;;;;;;4440955;32;20082;-63
2022/07/17 09:22:12;;;;;;;0.40;0.40;;;17.90;99.90;;;;;;4413247;32;20073;-63
2022/07/17 09:24:51;;;;;;;0.30;0.30;;;17.90;99.90;;;;;;4398436;32;20749;-63
2022/07/17 09:27:31;;;;;;;4.37;0.68;;;17.80;99.90;;;;;;4414858;32;20065;-63
2022/07/17 09:29:59;;;;;;;1.98;0.85;;;17.80;99.90;;;;;;4415393;32;20090;-64
2022/07/17 09:32:29;;;;;;;0.30;0.30;;;17.70;99.90;;;;;;4429911;32;20077;-63
2022/07/17 09:34:56;;;;;;;0.20;0.20;;;17.70;99.90;;;;;;4414335;32;20086;-63
2022/07/17 09:37:23;;;;;;;0.60;0.60;;;17.70;99.90;;;;;;4415159;32;20450;-63
2022/07/17 09:39:49;;;;;;;0.60;0.60;;;17.90;99.90;;;;;;4403251;32;20070;-63
2022/07/17 09:42:23;;;;;;;0.25;0.25;;;17.90;99.90;;;;;;4414616;32;20081;-63
2022/07/17 09:44:57;;;;;;;0.30;0.30;;;17.90;99.90;;;;;;4417898;32;20081;-63
2022/07/17 09:47:24;;;;;;;2.20;0.93;;;17.80;99.90;;;;;;4427729;32;20584;-62
2022/07/17 09:49:52;;;;;;;0.35;0.35;;;17.80;99.90;;;;;;4420742;32;20509;-63
2022/07/17 09:52:17;;;;;;;0.20;0.20;;;17.80;99.50;;;;;;4426361;32;20061;-63
2022/07/17 09:54:46;;;;;;;0.30;0.30;;;17.90;99.90;;;;;;4427912;32;20544;-63
2022/07/17 09:57:13;;;;;;;0.30;0.30;;;18.00;99.40;;;;;;4443861;32;20077;-63
2022/07/17 09:59:39;;;;;;;0.40;0.40;;;18.00;99.30;;;;;;4443573;32;20077;-63
2022/07/17 10:02:06;;;;;;;0.30;0.30;;;18.20;99.30;;;;;;4444386;32;20145;-63
2022/07/17 10:04:32;;;;;;;0.20;0.20;;;18.30;99.10;;;;;;4444108;32;20116;-63
2022/07/17 10:06:58;;;;;;;0.30;0.30;;;18.50;98.80;;;;;;4444305;32;20077;-63
2022/07/17 10:09:24;;;;;;;0.40;0.40;;;18.70;98.60;;;;;;4443651;32;20525;-63
2022/07/17 10:11:50;;;;;;;0.30;0.30;;;18.90;97.80;;;;;;4443748;32;20505;-63
2022/07/17 10:14:18;;;;;;;15.93;2.05;;;19.30;97.90;;;;;;4429564;32;20064;-63
2022/07/17 10:16:45;;;;;;;0.25;0.25;;;19.70;97.80;;;;;;4445010;32;20069;-63
2022/07/17 10:19:20;;;;;;;0.50;0.50;;;20.00;97.20;;;;;;4428186;32;20119;-64
2022/07/17 10:21:55;;;;;;;0.30;0.30;;;20.10;96.20;;;;;;4388909;32;20065;-63
2022/07/17 10:24:20;;;;;;;0.35;0.35;;;19.60;96.40;;;;;;4409710;32;20215;-64
2022/07/17 10:26:49;;;;;;;0.30;0.30;;;19.30;97.00;;;;;;4413671;32;20511;-63
2022/07/17 10:29:33;;;;;;;4.05;1.02;;;19.10;97.10;;;;;;4429275;32;20470;-62
2022/07/17 10:32:02;;;;;;;0.40;0.40;;;19.20;97.50;;;;;;4415315;32;20517;-63
2022/07/17 10:34:47;;;;;;;0.43;0.43;;;19.20;97.20;;;;;;4417954;32;20600;-63
2022/07/17 10:37:15;;;;;;;0.40;0.40;;;19.50;97.00;;;;;;4416249;32;20128;-62
2022/07/17 10:39:53;;;;;;;0.22;0.22;;;19.40;96.80;;;;;;4417258;32;20498;-62
2022/07/17 10:42:37;;;;;;;0.98;0.80;;;19.40;97.40;;;;;;4431579;32;20415;-63
2022/07/17 10:45:17;;;;;;;11.90;1.00;;;19.20;96.90;;;;;;4421867;32;20068;-63
2022/07/17 10:47:47;;;;;;;0.30;0.30;;;19.30;97.50;;;;;;4431113;32;20081;-62
2022/07/17 10:50:14;;;;;;;0.93;0.85;;;19.50;96.60;;;;;;4439860;32;20120;-62
2022/07/17 10:52:39;;;;;;;0.50;0.50;;;19.90;96.20;;;;;;4426534;32;20076;-62
2022/07/17 10:55:16;;;;;;;1.45;0.40;;;20.40;95.60;;;;;;4434046;32;20535;-62
2022/07/17 10:57:42;;;;;;;0.20;0.20;;;20.80;95.00;;;;;;4432362;32;20084;-62
2022/07/17 11:00:08;;;;;;;0.30;0.30;;;21.10;94.50;;;;;;4431552;32;20419;-62
2022/07/17 11:02:33;;;;;;;0.25;0.25;;;21.50;94.00;;;;;;4446962;32;20069;-62
2022/07/17 11:05:11;;;;;;;0.40;0.40;;;21.70;93.50;;;;;;4446442;32;20068;-62
2022/07/17 11:07:49;;;;;;;0.30;0.30;;;21.80;92.00;;;;;;4431592;32;20081;-62
2022/07/17 11:10:15;;;;;;;0.70;0.70;;;21.40;91.80;;;;;;4446803;32;20602;-62
2022/07/17 11:12:40;;;;;;;5.40;0.55;;;21.20;91.90;;;;;;4446147;32;20085;-62
2022/07/17 11:15:06;;;;;;;0.57;0.57;;;21.00;92.90;;;;;;4444928;32;20065;-62
2022/07/17 11:17:32;;;;;;;0.30;0.30;;;20.90;94.10;;;;;;4446274;32;20543;-63
2022/07/17 11:19:59;;;;;;;0.35;0.35;;;21.00;94.00;;;;;;4438310;32;20061;-63
2022/07/17 11:22:25;;;;;;;0.50;0.50;;;21.00;94.00;;;;;;4414181;32;20111;-63
2022/07/17 11:24:51;;;;;;;0.25;0.25;;;21.20;93.50;;;;;;4401679;32;20081;-63
2022/07/17 11:27:32;;;;;;;0.20;0.20;;;21.60;93.30;;;;;;4416556;32;20065;-63
2022/07/17 11:29:59;;;;;;;0.30;0.30;;;22.00;92.10;;;;;;4430813;32;20545;-63
2022/07/17 11:32:31;;;;;;;0.30;0.30;;;22.20;91.90;;;;;;4431052;32;20092;-63
2022/07/17 11:34:57;;;;;;;0.25;0.25;;;23.00;90.90;;;;;;4417567;32;20112;-63
2022/07/17 11:37:23;;;;;;;0.37;0.37;;;23.40;90.80;;;;;;4429960;32;20061;-63
2022/07/17 11:39:50;;;;;;;2.90;0.40;;;23.30;89.30;;;;;;4430277;32;20079;-63
2022/07/17 11:42:17;;;;;;;11.40;1.60;;;23.20;90.00;;;;;;4431086;32;20120;-64
2022/07/17 11:44:43;;;;;;;0.20;0.20;;;23.60;88.90;;;;;;4417841;32;20065;-63
2022/07/17 11:47:10;;;;;;;0.40;0.40;;;24.30;87.30;;;;;;4418713;32;20077;-63
2022/07/17 11:49:39;;;;;;;0.20;0.20;;;24.20;85.30;;;;;;4420872;32;20065;-63
2022/07/17 11:52:14;;;;;;;0.20;0.20;;;24.00;85.90;;;;;;4430583;32;20418;-63
2022/07/17 11:54:50;;;;;;;2.45;0.62;;;23.50;87.00;;;;;;4413954;32;20086;-63
2022/07/17 11:57:17;;;;;;;1.40;0.47;;;23.10;88.00;;;;;;4431511;32;20430;-63
2022/07/17 11:59:44;;;;;;;2.42;1.08;;;23.30;88.60;;;;;;4432216;32;20509;-64
2022/07/17 12:02:12;;;;;;;0.20;0.20;;;23.60;85.20;;;;;;4406006;32;20085;-64
2022/07/17 12:04:55;;;;;;;0.15;0.15;;;23.70;85.10;;;;;;4431400;32;20126;-64
2022/07/17 12:07:23;;;;;;;0.10;0.10;;;24.00;83.80;;;;;;4430843;32;20069;-63
2022/07/17 12:09:48;;;;;;;1.48;0.37;;;24.40;82.00;;;;;;4444916;32;20123;-64
2022/07/17 12:12:24;;;;;;;0.35;0.35;;;24.70;81.80;;;;;;4432420;32;20465;-64
2022/07/17 12:14:53;;;;;;;0.40;0.40;;;25.20;80.80;;;;;;4431861;32;20061;-64
2022/07/17 12:17:20;;;;;;;1.17;0.57;;;25.60;79.30;;;;;;4445235;32;20532;-64
2022/07/17 12:19:45;;;;;;;2.40;0.10;;;26.00;78.10;;;;;;4410018;32;20461;-64
2022/07/17 12:22:11;;;;;;;0.28;0.28;;;26.60;76.30;;;;;;4414355;32;20058;-64
2022/07/17 12:24:43;;;;;;;0.28;0.28;;;27.30;75.40;;;;;;4414013;32;20573;-61
2022/07/17 12:27:11;;;;;;;1.65;0.88;;;27.50;72.60;;;;;;4416935;32;20072;-63
2022/07/17 12:29:37;;;;;;;0.10;0.10;;;27.30;72.40;;;;;;4415827;32;20069;-64
2022/07/17 12:32:10;;;;;;;14.38;0.45;;;27.30;71.80;;;;;;4429659;32;20087;-64
2022/07/17 12:34:38;;;;;;;0.28;0.20;;;27.10;74.90;;;;;;4428983;32;20066;-64
2022/07/17 12:37:04;;;;;;;0.00;0.00;;;27.30;73.00;;;;;;4402763;32;20116;-64
2022/07/17 12:39:30;;;;;;;0.20;0.20;;;27.30;73.40;;;;;;4429832;32;20069;-64
2022/07/17 12:41:57;;;;;;;0.13;0.13;;;27.90;70.80;;;;;;4416498;32;20555;-64